Time;durP1;ratioP1;P1;durP2;ratioP2;P2;SDS_P1;SDS_P2;PMS_P1;PMS_P2;Temp;Humidity;BMP_temperature;BMP_pressure;BME280_temperature;BME280_humidity;BME280_pressure;Samples;Min_cycle;Max_cycle;Signal;HPM_P1;HPM_P2
2022/12/16 00:04:38;;;;;;;5.35;4.10;;;;;;;18.45;31.82;100875.03;16131240;19;129437;-63
2022/12/16 00:10:00;;;;;;;7.70;4.57;;;;;;;18.39;31.72;100871.34;16131319;19;130003;-62
2022/12/16 00:15:21;;;;;;;5.80;4.28;;;;;;;18.35;31.85;100880.34;16127686;19;129589;-59
2022/12/16 00:20:48;;;;;;;5.72;4.35;;;;;;;18.31;31.46;100869.75;16131273;19;130252;-61
2022/12/16 00:26:12;;;;;;;3.95;3.33;;;;;;;18.26;31.95;100861.38;16128648;19;129120;-61
2022/12/16 00:31:34;;;;;;;5.38;4.10;;;;;;;18.23;31.53;100866.53;16127554;19;129602;-61
2022/12/16 00:36:56;;;;;;;7.00;4.05;;;;;;;18.18;31.92;100867.25;16130122;19;129692;-59
2022/12/16 00:42:18;;;;;;;5.35;4.35;;;;;;;18.15;31.78;100863.06;16126677;19;130802;-60
2022/12/16 00:47:40;;;;;;;5.55;3.85;;;;;;;18.12;31.97;100871.84;16124850;19;130326;-60
2022/12/16 00:53:05;;;;;;;5.43;4.00;;;;;;;18.09;31.89;100872.34;16127446;19;129381;-60
2022/12/16 00:58:26;;;;;;;4.30;3.63;;;;;;;18.07;31.92;100879.22;16123028;19;129746;-60
2022/12/16 01:03:48;;;;;;;4.63;3.88;;;;;;;18.03;32.12;100878.03;16126235;19;129428;-60
2022/12/16 01:09:10;;;;;;;3.88;3.35;;;;;;;18.00;32.10;100879.34;16123522;19;129701;-59
2022/12/16 01:14:35;;;;;;;4.40;3.70;;;;;;;17.97;31.79;100879.84;16127339;19;129033;-60
2022/12/16 01:19:57;;;;;;;4.37;3.50;;;;;;;17.93;31.98;100895.25;16122822;19;129275;-60
2022/12/16 01:25:19;;;;;;;4.43;3.42;;;;;;;17.90;31.78;100890.19;16122875;19;130375;-60
2022/12/16 01:30:40;;;;;;;4.32;3.47;;;;;;;17.88;31.94;100897.88;16123728;19;129330;-60
2022/12/16 01:36:05;;;;;;;4.47;3.25;;;;;;;17.84;32.11;100905.84;16123561;19;129397;-60
2022/12/16 01:41:27;;;;;;;4.90;3.42;;;;;;;17.81;32.04;100926.53;16124585;19;129474;-60
2022/12/16 01:46:52;;;;;;;4.18;3.60;;;;;;;17.79;32.17;100923.16;16156535;19;132028;-61
2022/12/16 01:52:20;;;;;;;4.85;3.42;;;;;;;17.77;31.96;100930.88;16157453;19;129400;-60
2022/12/16 01:57:53;;;;;;;5.47;3.80;;;;;;;17.75;31.90;100943.25;16152394;19;129047;-60
2022/12/16 02:03:15;;;;;;;3.95;3.30;;;;;;;17.72;32.24;100955.66;16153044;19;129483;-61
2022/12/16 02:08:37;;;;;;;4.03;3.13;;;;;;;17.69;32.18;100951.44;16153896;19;131289;-60
2022/12/16 02:14:01;;;;;;;4.15;3.42;;;;;;;17.69;31.88;100956.13;16156499;19;130590;-60
2022/12/16 02:19:29;;;;;;;4.13;3.50;;;;;;;17.66;32.32;100951.06;16150732;19;129650;-60
2022/12/16 02:24:59;;;;;;;5.88;3.42;;;;;;;17.65;31.92;100954.91;16152662;19;129205;-61
2022/12/16 02:30:49;;;;;;;3.67;3.10;;;;;;;17.62;31.85;100952.63;16151608;19;130075;-60
2022/12/16 02:36:23;;;;;;;6.00;3.05;;;;;;;17.58;32.28;100949.50;16149607;19;129784;-60
2022/12/16 02:41:56;;;;;;;4.13;3.33;;;;;;;17.56;32.32;100956.34;16150800;19;129634;-60
2022/12/16 02:47:18;;;;;;;3.95;3.13;;;;;;;17.53;31.91;100964.00;16150514;19;131577;-61
2022/12/16 02:52:43;;;;;;;4.37;3.10;;;;;;;17.51;32.32;100966.16;16145448;19;130333;-60
2022/12/16 02:58:23;;;;;;;3.58;2.80;;;;;;;17.51;32.06;100971.69;16130882;19;129649;-60
2022/12/16 03:03:59;;;;;;;4.18;2.90;;;;;;;17.49;31.99;100962.78;16134005;19;129342;-60
2022/12/16 03:09:27;;;;;;;5.20;3.30;;;;;;;17.46;32.00;100968.81;16135336;19;129510;-60
2022/12/16 03:14:52;;;;;;;4.05;3.10;;;;;;;17.43;32.15;100974.81;16132233;19;129206;-61
2022/12/16 03:20:21;;;;;;;5.35;3.22;;;;;;;17.42;32.38;100983.34;16132726;19;129476;-61
2022/12/16 03:25:46;;;;;;;3.97;2.88;;;;;;;17.40;32.24;100986.34;16134863;19;129465;-60
2022/12/16 03:31:34;;;;;;;4.43;2.90;;;;;;;17.39;32.27;101004.00;16131645;19;130160;-60
2022/12/16 03:37:01;;;;;;;5.38;3.20;;;;;;;17.37;32.12;101003.41;16131285;19;129985;-60
2022/12/16 03:42:23;;;;;;;4.15;2.90;;;;;;;17.35;32.43;101011.94;16131034;19;130722;-60
2022/12/16 03:47:49;;;;;;;5.43;3.55;;;;;;;17.33;32.36;101029.88;16129856;19;129273;-60
2022/12/16 03:53:11;;;;;;;4.63;3.50;;;;;;;17.30;31.91;101016.50;16130550;19;129543;-60
2022/12/16 03:58:34;;;;;;;4.65;3.55;;;;;;;17.29;32.28;101025.88;16130734;19;133375;-61
2022/12/16 04:03:56;;;;;;;5.55;3.90;;;;;;;17.28;31.93;101038.00;16114955;19;130422;-60
2022/12/16 04:09:19;;;;;;;5.63;3.63;;;;;;;17.26;31.93;101040.16;16125931;19;129575;-61
2022/12/16 04:26:11;;;;;;;7.85;5.05;;;;;;;17.18;31.83;101049.63;16126573;19;129796;-61
2022/12/16 04:31:33;;;;;;;9.18;5.18;;;;;;;17.16;31.61;101046.28;16128798;19;130936;-61
